sensor_id;sensor_type;location;lat;lon;timestamp;P1;durP1;ratioP1;P2;durP2;ratioP2
23082;SDS011;11709;52.420;10.538;2023-01-05T00:02:21;33.93;;;32.30;;
23082;SDS011;11709;52.420;10.538;2023-01-05T00:06:24;37.77;;;35.93;;
23082;SDS011;11709;52.420;10.538;2023-01-05T00:10:26;39.77;;;37.87;;
23082;SDS011;11709;52.420;10.538;2023-01-05T00:14:47;35.33;;;33.70;;
23082;SDS011;11709;52.420;10.538;2023-01-05T00:19:10;36.07;;;34.43;;
23082;SDS011;11709;52.420;10.538;2023-01-05T00:23:31;38.53;;;36.70;;
23082;SDS011;11709;52.420;10.538;2023-01-05T00:27:33;39.90;;;37.97;;
23082;SDS011;11709;52.420;10.538;2023-01-05T00:31:36;42.67;;;40.57;;
23082;SDS011;11709;52.420;10.538;2023-01-05T00:35:39;40.87;;;38.93;;
23082;SDS011;11709;52.420;10.538;2023-01-05T00:39:41;40.00;;;38.10;;
23082;SDS011;11709;52.420;10.538;2023-01-05T00:43:44;36.97;;;35.13;;
23082;SDS011;11709;52.420;10.538;2023-01-05T00:47:46;38.17;;;36.33;;
23082;SDS011;11709;52.420;10.538;2023-01-05T00:51:51;36.20;;;34.47;;
23082;SDS011;11709;52.420;10.538;2023-01-05T00:55:56;36.13;;;34.37;;
23082;SDS011;11709;52.420;10.538;2023-01-05T00:59:59;38.33;;;36.40;;
23082;SDS011;11709;52.420;10.538;2023-01-05T01:04:02;38.27;;;36.43;;
23082;SDS011;11709;52.420;10.538;2023-01-05T01:08:05;38.30;;;36.47;;
23082;SDS011;11709;52.420;10.538;2023-01-05T01:12:07;37.90;;;36.07;;
23082;SDS011;11709;52.420;10.538;2023-01-05T01:16:11;37.77;;;35.93;;
23082;SDS011;11709;52.420;10.538;2023-01-05T01:20:15;40.53;;;38.50;;
23082;SDS011;11709;52.420;10.538;2023-01-05T01:24:25;39.67;;;37.80;;
23082;SDS011;11709;52.420;10.538;2023-01-05T01:28:28;42.47;;;40.37;;
23082;SDS011;11709;52.420;10.538;2023-01-05T01:32:30;40.47;;;38.50;;
23082;SDS011;11709;52.420;10.538;2023-01-05T01:36:33;38.03;;;36.20;;
23082;SDS011;11709;52.420;10.538;2023-01-05T01:40:44;34.83;;;33.13;;
23082;SDS011;11709;52.420;10.538;2023-01-05T01:49:03;41.50;;;39.23;;
23082;SDS011;11709;52.420;10.538;2023-01-05T01:53:14;37.10;;;35.27;;
23082;SDS011;11709;52.420;10.538;2023-01-05T01:57:14;36.87;;;35.03;;
23082;SDS011;11709;52.420;10.538;2023-01-05T02:01:17;38.90;;;37.03;;
23082;SDS011;11709;52.420;10.538;2023-01-05T02:05:21;42.27;;;40.20;;
23082;SDS011;11709;52.420;10.538;2023-01-05T02:09:25;42.40;;;40.30;;
23082;SDS011;11709;52.420;10.538;2023-01-05T02:13:31;42.27;;;40.20;;
23082;SDS011;11709;52.420;10.538;2023-01-05T02:22:05;38.77;;;36.93;;
23082;SDS011;11709;52.420;10.538;2023-01-05T02:31:16;39.38;;;37.48;;
23082;SDS011;11709;52.420;10.538;2023-01-05T02:39:50;41.33;;;39.30;;
23082;SDS011;11709;52.420;10.538;2023-01-05T02:43:57;40.43;;;38.50;;
23082;SDS011;11709;52.420;10.538;2023-01-05T02:48:02;41.87;;;39.87;;
23082;SDS011;11709;52.420;10.538;2023-01-05T02:52:05;41.50;;;39.53;;
23082;SDS011;11709;52.420;10.538;2023-01-05T02:56:09;38.93;;;37.03;;
23082;SDS011;11709;52.420;10.538;2023-01-05T03:00:15;42.20;;;40.17;;
23082;SDS011;11709;52.420;10.538;2023-01-05T03:04:21;39.97;;;38.03;;
23082;SDS011;11709;52.420;10.538;2023-01-05T03:08:25;39.83;;;37.90;;
23082;SDS011;11709;52.420;10.538;2023-01-05T03:12:35;40.07;;;38.13;;
23082;SDS011;11709;52.420;10.538;2023-01-05T03:16:53;40.10;;;38.23;;
23082;SDS011;11709;52.420;10.538;2023-01-05T03:20:57;40.20;;;38.20;;
23082;SDS011;11709;52.420;10.538;2023-01-05T03:25:01;39.87;;;37.97;;
23082;SDS011;11709;52.420;10.538;2023-01-05T03:29:23;40.67;;;38.73;;
23082;SDS011;11709;52.420;10.538;2023-01-05T03:33:49;41.57;;;39.63;;
23082;SDS011;11709;52.420;10.538;2023-01-05T03:38:22;41.60;;;39.50;;
23082;SDS011;11709;52.420;10.538;2023-01-05T03:42:27;40.73;;;38.80;;
23082;SDS011;11709;52.420;10.538;2023-01-05T03:46:30;41.63;;;39.60;;
23082;SDS011;11709;52.420;10.538;2023-01-05T03:50:34;42.27;;;40.17;;
23082;SDS011;11709;52.420;10.538;2023-01-05T03:54:37;38.73;;;36.90;;
23082;SDS011;11709;52.420;10.538;2023-01-05T03:58:39;38.20;;;36.27;;
23082;SDS011;11709;52.420;10.538;2023-01-05T04:02:42;36.37;;;34.53;;
23082;SDS011;11709;52.420;10.538;2023-01-05T04:06:44;37.33;;;35.53;;
23082;SDS011;11709;52.420;10.538;2023-01-05T04:10:47;34.37;;;32.73;;
23082;SDS011;11709;52.420;10.538;2023-01-05T04:14:51;37.27;;;35.47;;
23082;SDS011;11709;52.420;10.538;2023-01-05T04:18:53;43.37;;;41.10;;
23082;SDS011;11709;52.420;10.538;2023-01-05T04:22:56;38.43;;;36.63;;
23082;SDS011;11709;52.420;10.538;2023-01-05T04:26:58;39.07;;;37.23;;
23082;SDS011;11709;52.420;10.538;2023-01-05T04:31:01;40.13;;;38.20;;
23082;SDS011;11709;52.420;10.538;2023-01-05T04:35:04;37.77;;;35.93;;
23082;SDS011;11709;52.420;10.538;2023-01-05T04:39:06;38.93;;;37.03;;
23082;SDS011;11709;52.420;10.538;2023-01-05T04:43:09;38.10;;;36.27;;
23082;SDS011;11709;52.420;10.538;2023-01-05T04:47:11;36.97;;;35.17;;
23082;SDS011;11709;52.420;10.538;2023-01-05T04:51:14;38.00;;;36.13;;
23082;SDS011;11709;52.420;10.538;2023-01-05T04:55:16;40.93;;;38.93;;
23082;SDS011;11709;52.420;10.538;2023-01-05T04:59:19;38.73;;;36.80;;
23082;SDS011;11709;52.420;10.538;2023-01-05T05:03:21;39.47;;;37.53;;
23082;SDS011;11709;52.420;10.538;2023-01-05T05:07:24;40.90;;;38.93;;
23082;SDS011;11709;52.420;10.538;2023-01-05T05:11:26;38.40;;;36.53;;
23082;SDS011;11709;52.420;10.538;2023-01-05T05:15:29;40.47;;;38.53;;
23082;SDS011;11709;52.420;10.538;2023-01-05T05:19:31;36.63;;;34.93;;
23082;SDS011;11709;52.420;10.538;2023-01-05T05:23:34;37.80;;;35.97;;
23082;SDS011;11709;52.420;10.538;2023-01-05T05:27:36;39.43;;;37.53;;
23082;SDS011;11709;52.420;10.538;2023-01-05T05:31:39;37.90;;;36.03;;
23082;SDS011;11709;52.420;10.538;2023-01-05T05:35:41;39.47;;;37.53;;
23082;SDS011;11709;52.420;10.538;2023-01-05T05:39:44;36.13;;;34.40;;
23082;SDS011;11709;52.420;10.538;2023-01-05T05:43:46;37.23;;;35.47;;
23082;SDS011;11709;52.420;10.538;2023-01-05T05:47:49;37.13;;;35.30;;
23082;SDS011;11709;52.420;10.538;2023-01-05T05:51:51;35.67;;;33.87;;
23082;SDS011;11709;52.420;10.538;2023-01-05T05:55:54;35.47;;;33.73;;
23082;SDS011;11709;52.420;10.538;2023-01-05T05:59:56;37.10;;;35.30;;
23082;SDS011;11709;52.420;10.538;2023-01-05T06:03:59;34.13;;;32.50;;
23082;SDS011;11709;52.420;10.538;2023-01-05T06:08:01;34.97;;;33.33;;
23082;SDS011;11709;52.420;10.538;2023-01-05T06:12:04;38.30;;;36.43;;
23082;SDS011;11709;52.420;10.538;2023-01-05T06:16:07;36.83;;;35.07;;
23082;SDS011;11709;52.420;10.538;2023-01-05T06:20:10;35.80;;;33.97;;
23082;SDS011;11709;52.420;10.538;2023-01-05T06:24:12;36.40;;;34.67;;
23082;SDS011;11709;52.420;10.538;2023-01-05T06:28:15;37.10;;;35.27;;
23082;SDS011;11709;52.420;10.538;2023-01-05T06:32:17;36.47;;;34.70;;
23082;SDS011;11709;52.420;10.538;2023-01-05T06:36:20;37.20;;;35.47;;
23082;SDS011;11709;52.420;10.538;2023-01-05T06:40:22;37.57;;;35.80;;
23082;SDS011;11709;52.420;10.538;2023-01-05T06:44:25;35.43;;;33.77;;
23082;SDS011;11709;52.420;10.538;2023-01-05T06:48:27;33.90;;;32.20;;
23082;SDS011;11709;52.420;10.538;2023-01-05T06:52:30;31.27;;;29.70;;
23082;SDS011;11709;52.420;10.538;2023-01-05T06:56:34;30.70;;;29.17;;
23082;SDS011;11709;52.420;10.538;2023-01-05T07:00:36;30.07;;;28.63;;
23082;SDS011;11709;52.420;10.538;2023-01-05T07:04:39;32.67;;;31.00;;
23082;SDS011;11709;52.420;10.538;2023-01-05T07:08:42;33.37;;;31.57;;
23082;SDS011;11709;52.420;10.538;2023-01-05T07:12:44;33.50;;;31.87;;
23082;SDS011;11709;52.420;10.538;2023-01-05T07:16:47;32.77;;;31.17;;
23082;SDS011;11709;52.420;10.538;2023-01-05T07:20:49;31.50;;;29.87;;
23082;SDS011;11709;52.420;10.538;2023-01-05T07:24:52;30.93;;;29.40;;
23082;SDS011;11709;52.420;10.538;2023-01-05T07:28:54;34.13;;;32.40;;
23082;SDS011;11709;52.420;10.538;2023-01-05T07:32:58;32.87;;;31.27;;
23082;SDS011;11709;52.420;10.538;2023-01-05T07:37:01;30.67;;;29.13;;
23082;SDS011;11709;52.420;10.538;2023-01-05T07:41:04;31.50;;;29.97;;
23082;SDS011;11709;52.420;10.538;2023-01-05T07:45:06;30.63;;;29.17;;
23082;SDS011;11709;52.420;10.538;2023-01-05T07:49:09;29.10;;;27.70;;
23082;SDS011;11709;52.420;10.538;2023-01-05T07:57:36;30.70;;;29.17;;
23082;SDS011;11709;52.420;10.538;2023-01-05T08:01:39;32.97;;;31.23;;
23082;SDS011;11709;52.420;10.538;2023-01-05T08:05:41;32.83;;;31.20;;
23082;SDS011;11709;52.420;10.538;2023-01-05T08:09:44;29.60;;;28.13;;
23082;SDS011;11709;52.420;10.538;2023-01-05T08:14:04;31.67;;;30.00;;
23082;SDS011;11709;52.420;10.538;2023-01-05T08:18:08;30.23;;;28.70;;
23082;SDS011;11709;52.420;10.538;2023-01-05T08:22:11;30.43;;;28.97;;
23082;SDS011;11709;52.420;10.538;2023-01-05T08:26:15;31.93;;;30.30;;
23082;SDS011;11709;52.420;10.538;2023-01-05T08:30:19;33.03;;;31.33;;
23082;SDS011;11709;52.420;10.538;2023-01-05T08:34:21;32.77;;;31.03;;
23082;SDS011;11709;52.420;10.538;2023-01-05T08:38:24;29.93;;;28.43;;
23082;SDS011;11709;52.420;10.538;2023-01-05T08:42:27;31.07;;;29.47;;
23082;SDS011;11709;52.420;10.538;2023-01-05T08:46:30;31.73;;;30.07;;
23082;SDS011;11709;52.420;10.538;2023-01-05T08:50:34;31.20;;;29.57;;
23082;SDS011;11709;52.420;10.538;2023-01-05T08:54:38;35.23;;;33.33;;
23082;SDS011;11709;52.420;10.538;2023-01-05T08:58:40;32.83;;;30.97;;
23082;SDS011;11709;52.420;10.538;2023-01-05T09:02:43;31.53;;;29.90;;
23082;SDS011;11709;52.420;10.538;2023-01-05T09:06:46;34.57;;;32.80;;
23082;SDS011;11709;52.420;10.538;2023-01-05T09:10:48;31.27;;;29.63;;
23082;SDS011;11709;52.420;10.538;2023-01-05T09:14:51;33.30;;;31.70;;
23082;SDS011;11709;52.420;10.538;2023-01-05T09:18:55;33.30;;;31.47;;
23082;SDS011;11709;52.420;10.538;2023-01-05T09:22:59;32.40;;;30.77;;
23082;SDS011;11709;52.420;10.538;2023-01-05T09:27:01;34.10;;;32.33;;
23082;SDS011;11709;52.420;10.538;2023-01-05T09:31:09;34.13;;;32.37;;
23082;SDS011;11709;52.420;10.538;2023-01-05T09:35:16;33.17;;;31.50;;
23082;SDS011;11709;52.420;10.538;2023-01-05T09:39:19;30.20;;;28.67;;
23082;SDS011;11709;52.420;10.538;2023-01-05T09:43:22;31.30;;;29.70;;
23082;SDS011;11709;52.420;10.538;2023-01-05T09:51:37;29.43;;;28.07;;
23082;SDS011;11709;52.420;10.538;2023-01-05T09:55:41;33.00;;;31.33;;
23082;SDS011;11709;52.420;10.538;2023-01-05T09:59:48;31.33;;;29.67;;
23082;SDS011;11709;52.420;10.538;2023-01-05T10:04:05;23.22;;;21.95;;
23082;SDS011;11709;52.420;10.538;2023-01-05T10:08:12;25.15;;;23.77;;
23082;SDS011;11709;52.420;10.538;2023-01-05T10:12:20;24.02;;;22.73;;
23082;SDS011;11709;52.420;10.538;2023-01-05T10:16:42;22.27;;;21.07;;
23082;SDS011;11709;52.420;10.538;2023-01-05T10:25:13;23.52;;;22.27;;
23082;SDS011;11709;52.420;10.538;2023-01-05T10:29:12;22.93;;;21.68;;
23082;SDS011;11709;52.420;10.538;2023-01-05T10:42:21;21.02;;;19.82;;
23082;SDS011;11709;52.420;10.538;2023-01-05T10:46:41;23.07;;;21.80;;
23082;SDS011;11709;52.420;10.538;2023-01-05T10:50:46;22.32;;;21.12;;
23082;SDS011;11709;52.420;10.538;2023-01-05T10:54:51;25.65;;;24.25;;
23082;SDS011;11709;52.420;10.538;2023-01-05T10:59:10;30.77;;;29.17;;
23082;SDS011;11709;52.420;10.538;2023-01-05T11:03:15;29.93;;;28.43;;
23082;SDS011;11709;52.420;10.538;2023-01-05T11:07:19;30.87;;;29.30;;
23082;SDS011;11709;52.420;10.538;2023-01-05T11:11:23;33.00;;;31.23;;
23082;SDS011;11709;52.420;10.538;2023-01-05T11:15:27;29.60;;;28.00;;
23082;SDS011;11709;52.420;10.538;2023-01-05T11:19:41;30.05;;;28.42;;
23082;SDS011;11709;52.420;10.538;2023-01-05T11:23:38;27.27;;;25.88;;
23082;SDS011;11709;52.420;10.538;2023-01-05T11:27:43;26.87;;;25.45;;
23082;SDS011;11709;52.420;10.538;2023-01-05T11:35:53;25.17;;;23.80;;
23082;SDS011;11709;52.420;10.538;2023-01-05T11:40:00;28.32;;;26.85;;
23082;SDS011;11709;52.420;10.538;2023-01-05T11:44:05;28.25;;;26.77;;
23082;SDS011;11709;52.420;10.538;2023-01-05T11:48:12;30.62;;;28.95;;
23082;SDS011;11709;52.420;10.538;2023-01-05T11:56:35;27.65;;;26.23;;
23082;SDS011;11709;52.420;10.538;2023-01-05T12:09:35;32.30;;;30.67;;
23082;SDS011;11709;52.420;10.538;2023-01-05T12:13:53;31.63;;;30.10;;
23082;SDS011;11709;52.420;10.538;2023-01-05T12:18:22;31.53;;;30.00;;
23082;SDS011;11709;52.420;10.538;2023-01-05T12:22:31;34.63;;;32.87;;
23082;SDS011;11709;52.420;10.538;2023-01-05T12:30:49;33.63;;;32.00;;
23082;SDS011;11709;52.420;10.538;2023-01-05T12:35:32;37.13;;;35.30;;
23082;SDS011;11709;52.420;10.538;2023-01-05T12:44:07;38.97;;;37.03;;
23082;SDS011;11709;52.420;10.538;2023-01-05T12:48:20;39.53;;;37.63;;
23082;SDS011;11709;52.420;10.538;2023-01-05T12:52:27;41.93;;;39.90;;
23082;SDS011;11709;52.420;10.538;2023-01-05T12:56:45;40.43;;;38.40;;
23082;SDS011;11709;52.420;10.538;2023-01-05T13:00:49;41.07;;;39.03;;
23082;SDS011;11709;52.420;10.538;2023-01-05T13:04:55;39.00;;;37.07;;
23082;SDS011;11709;52.420;10.538;2023-01-05T13:09:02;42.80;;;40.63;;
23082;SDS011;11709;52.420;10.538;2023-01-05T13:13:11;39.00;;;37.03;;
23082;SDS011;11709;52.420;10.538;2023-01-05T13:17:22;40.47;;;38.57;;
23082;SDS011;11709;52.420;10.538;2023-01-05T13:21:26;40.90;;;38.87;;
23082;SDS011;11709;52.420;10.538;2023-01-05T13:25:46;42.73;;;40.70;;
23082;SDS011;11709;52.420;10.538;2023-01-05T13:29:47;40.20;;;38.30;;
23082;SDS011;11709;52.420;10.538;2023-01-05T13:38:22;40.73;;;38.67;;
23082;SDS011;11709;52.420;10.538;2023-01-05T13:42:51;39.07;;;37.10;;
23082;SDS011;11709;52.420;10.538;2023-01-05T13:55:18;39.30;;;37.30;;
23082;SDS011;11709;52.420;10.538;2023-01-05T13:59:31;41.27;;;39.13;;
23082;SDS011;11709;52.420;10.538;2023-01-05T14:03:37;36.87;;;35.03;;
23082;SDS011;11709;52.420;10.538;2023-01-05T14:07:41;32.15;;;30.55;;
23082;SDS011;11709;52.420;10.538;2023-01-05T14:16:50;28.17;;;26.68;;
23082;SDS011;11709;52.420;10.538;2023-01-05T14:20:47;27.77;;;26.35;;
23082;SDS011;11709;52.420;10.538;2023-01-05T14:24:52;33.88;;;32.10;;
23082;SDS011;11709;52.420;10.538;2023-01-05T14:28:54;30.32;;;28.75;;
23082;SDS011;11709;52.420;10.538;2023-01-05T14:32:59;27.55;;;26.12;;
23082;SDS011;11709;52.420;10.538;2023-01-05T14:37:04;27.98;;;26.50;;
23082;SDS011;11709;52.420;10.538;2023-01-05T14:41:12;28.75;;;27.22;;
23082;SDS011;11709;52.420;10.538;2023-01-05T14:45:20;28.32;;;26.82;;
23082;SDS011;11709;52.420;10.538;2023-01-05T14:49:33;28.65;;;27.13;;
23082;SDS011;11709;52.420;10.538;2023-01-05T14:57:46;27.52;;;26.05;;
23082;SDS011;11709;52.420;10.538;2023-01-05T15:01:52;26.48;;;25.10;;
23082;SDS011;11709;52.420;10.538;2023-01-05T15:05:59;29.50;;;27.93;;
23082;SDS011;11709;52.420;10.538;2023-01-05T15:10:16;27.90;;;26.30;;
23082;SDS011;11709;52.420;10.538;2023-01-05T15:14:28;26.50;;;25.12;;
23082;SDS011;11709;52.420;10.538;2023-01-05T15:32:25;27.77;;;26.30;;
23082;SDS011;11709;52.420;10.538;2023-01-05T15:36:35;29.60;;;28.07;;
23082;SDS011;11709;52.420;10.538;2023-01-05T15:40:42;28.67;;;27.17;;
23082;SDS011;11709;52.420;10.538;2023-01-05T15:44:46;29.87;;;28.27;;
23082;SDS011;11709;52.420;10.538;2023-01-05T15:48:50;32.20;;;30.43;;
23082;SDS011;11709;52.420;10.538;2023-01-05T15:52:55;27.73;;;26.33;;
23082;SDS011;11709;52.420;10.538;2023-01-05T15:57:00;26.75;;;25.45;;
23082;SDS011;11709;52.420;10.538;2023-01-05T16:01:07;31.30;;;29.70;;
23082;SDS011;11709;52.420;10.538;2023-01-05T16:05:18;31.37;;;29.67;;
23082;SDS011;11709;52.420;10.538;2023-01-05T16:09:21;28.43;;;26.97;;
23082;SDS011;11709;52.420;10.538;2023-01-05T16:13:34;28.97;;;27.50;;
23082;SDS011;11709;52.420;10.538;2023-01-05T16:17:35;31.83;;;30.10;;
23082;SDS011;11709;52.420;10.538;2023-01-05T16:21:47;30.80;;;29.20;;
23082;SDS011;11709;52.420;10.538;2023-01-05T16:25:51;26.80;;;25.50;;
23082;SDS011;11709;52.420;10.538;2023-01-05T16:29:55;27.80;;;26.33;;
23082;SDS011;11709;52.420;10.538;2023-01-05T16:34:18;27.50;;;26.07;;
23082;SDS011;11709;52.420;10.538;2023-01-05T16:38:27;28.70;;;27.10;;
23082;SDS011;11709;52.420;10.538;2023-01-05T16:42:32;26.95;;;25.57;;
23082;SDS011;11709;52.420;10.538;2023-01-05T16:46:41;28.40;;;26.90;;
23082;SDS011;11709;52.420;10.538;2023-01-05T16:50:51;28.43;;;26.97;;
23082;SDS011;11709;52.420;10.538;2023-01-05T16:55:31;29.77;;;28.20;;
23082;SDS011;11709;52.420;10.538;2023-01-05T16:59:29;30.85;;;29.35;;
23082;SDS011;11709;52.420;10.538;2023-01-05T17:03:34;31.30;;;29.73;;
23082;SDS011;11709;52.420;10.538;2023-01-05T17:07:37;29.67;;;28.13;;
23082;SDS011;11709;52.420;10.538;2023-01-05T17:11:41;28.37;;;26.87;;
23082;SDS011;11709;52.420;10.538;2023-01-05T17:15:44;28.75;;;27.20;;
23082;SDS011;11709;52.420;10.538;2023-01-05T17:19:48;26.57;;;25.17;;
23082;SDS011;11709;52.420;10.538;2023-01-05T17:23:55;29.07;;;27.47;;
23082;SDS011;11709;52.420;10.538;2023-01-05T17:28:00;27.27;;;25.88;;
23082;SDS011;11709;52.420;10.538;2023-01-05T17:32:02;28.17;;;26.75;;
23082;SDS011;11709;52.420;10.538;2023-01-05T17:36:05;27.70;;;26.20;;
23082;SDS011;11709;52.420;10.538;2023-01-05T17:40:14;28.13;;;26.57;;
23082;SDS011;11709;52.420;10.538;2023-01-05T17:44:19;27.40;;;25.93;;
23082;SDS011;11709;52.420;10.538;2023-01-05T17:48:21;27.97;;;26.50;;
23082;SDS011;11709;52.420;10.538;2023-01-05T17:52:24;29.70;;;28.13;;
23082;SDS011;11709;52.420;10.538;2023-01-05T17:56:27;27.83;;;26.37;;
23082;SDS011;11709;52.420;10.538;2023-01-05T18:00:30;28.87;;;27.30;;
23082;SDS011;11709;52.420;10.538;2023-01-05T18:04:36;31.40;;;29.73;;
23082;SDS011;11709;52.420;10.538;2023-01-05T18:08:38;30.83;;;29.27;;
23082;SDS011;11709;52.420;10.538;2023-01-05T18:12:41;30.70;;;29.12;;
23082;SDS011;11709;52.420;10.538;2023-01-05T18:16:44;28.42;;;26.93;;
23082;SDS011;11709;52.420;10.538;2023-01-05T18:20:46;27.02;;;25.65;;
23082;SDS011;11709;52.420;10.538;2023-01-05T18:24:52;27.75;;;26.33;;
23082;SDS011;11709;52.420;10.538;2023-01-05T18:28:55;26.75;;;25.32;;
23082;SDS011;11709;52.420;10.538;2023-01-05T18:32:57;27.82;;;26.33;;
23082;SDS011;11709;52.420;10.538;2023-01-05T18:37:00;28.07;;;26.55;;
23082;SDS011;11709;52.420;10.538;2023-01-05T18:41:02;25.27;;;23.92;;
23082;SDS011;11709;52.420;10.538;2023-01-05T18:45:06;26.73;;;25.30;;
23082;SDS011;11709;52.420;10.538;2023-01-05T18:49:09;28.23;;;26.75;;
23082;SDS011;11709;52.420;10.538;2023-01-05T18:53:12;27.00;;;25.62;;
23082;SDS011;11709;52.420;10.538;2023-01-05T18:57:15;26.95;;;25.57;;
23082;SDS011;11709;52.420;10.538;2023-01-05T19:01:17;25.10;;;23.83;;
23082;SDS011;11709;52.420;10.538;2023-01-05T19:05:21;28.27;;;26.73;;
23082;SDS011;11709;52.420;10.538;2023-01-05T19:09:23;26.27;;;24.87;;
23082;SDS011;11709;52.420;10.538;2023-01-05T19:13:26;29.27;;;27.70;;
23082;SDS011;11709;52.420;10.538;2023-01-05T19:17:28;27.23;;;25.77;;
23082;SDS011;11709;52.420;10.538;2023-01-05T19:21:33;27.73;;;26.27;;
23082;SDS011;11709;52.420;10.538;2023-01-05T19:25:37;27.40;;;25.97;;
23082;SDS011;11709;52.420;10.538;2023-01-05T19:29:40;28.67;;;27.17;;
23082;SDS011;11709;52.420;10.538;2023-01-05T19:33:42;30.20;;;28.53;;
23082;SDS011;11709;52.420;10.538;2023-01-05T19:37:45;28.57;;;27.07;;
23082;SDS011;11709;52.420;10.538;2023-01-05T19:41:48;28.27;;;26.80;;
23082;SDS011;11709;52.420;10.538;2023-01-05T19:45:55;29.70;;;28.13;;
23082;SDS011;11709;52.420;10.538;2023-01-05T19:49:57;31.80;;;30.17;;
23082;SDS011;11709;52.420;10.538;2023-01-05T19:54:00;31.63;;;29.97;;
23082;SDS011;11709;52.420;10.538;2023-01-05T19:58:04;30.60;;;28.93;;
23082;SDS011;11709;52.420;10.538;2023-01-05T20:02:07;30.77;;;29.07;;
23082;SDS011;11709;52.420;10.538;2023-01-05T20:06:11;29.50;;;27.90;;
23082;SDS011;11709;52.420;10.538;2023-01-05T20:10:15;31.03;;;29.37;;
23082;SDS011;11709;52.420;10.538;2023-01-05T20:14:19;29.80;;;28.23;;
23082;SDS011;11709;52.420;10.538;2023-01-05T20:18:24;33.70;;;32.00;;
23082;SDS011;11709;52.420;10.538;2023-01-05T20:22:26;30.03;;;28.47;;
23082;SDS011;11709;52.420;10.538;2023-01-05T20:26:29;31.97;;;30.27;;
23082;SDS011;11709;52.420;10.538;2023-01-05T20:30:32;28.70;;;27.23;;
23082;SDS011;11709;52.420;10.538;2023-01-05T20:34:35;31.90;;;30.13;;
23082;SDS011;11709;52.420;10.538;2023-01-05T20:38:39;31.13;;;29.40;;
23082;SDS011;11709;52.420;10.538;2023-01-05T20:42:41;28.73;;;27.23;;
23082;SDS011;11709;52.420;10.538;2023-01-05T20:46:46;28.43;;;27.00;;
23082;SDS011;11709;52.420;10.538;2023-01-05T20:50:50;31.20;;;29.50;;
23082;SDS011;11709;52.420;10.538;2023-01-05T20:54:53;29.17;;;27.63;;
23082;SDS011;11709;52.420;10.538;2023-01-05T20:58:55;30.05;;;28.30;;
23082;SDS011;11709;52.420;10.538;2023-01-05T21:02:58;30.97;;;29.30;;
23082;SDS011;11709;52.420;10.538;2023-01-05T21:07:00;29.60;;;28.03;;
23082;SDS011;11709;52.420;10.538;2023-01-05T21:11:03;29.37;;;27.80;;
23082;SDS011;11709;52.420;10.538;2023-01-05T21:15:09;29.32;;;27.77;;
23082;SDS011;11709;52.420;10.538;2023-01-05T21:19:12;28.87;;;27.33;;
23082;SDS011;11709;52.420;10.538;2023-01-05T21:23:17;29.90;;;28.23;;
23082;SDS011;11709;52.420;10.538;2023-01-05T21:27:19;29.87;;;28.23;;
23082;SDS011;11709;52.420;10.538;2023-01-05T21:31:23;28.87;;;27.37;;
23082;SDS011;11709;52.420;10.538;2023-01-05T21:35:26;29.10;;;27.57;;
23082;SDS011;11709;52.420;10.538;2023-01-05T21:39:28;27.83;;;26.40;;
23082;SDS011;11709;52.420;10.538;2023-01-05T21:43:31;30.77;;;29.13;;
23082;SDS011;11709;52.420;10.538;2023-01-05T21:47:35;28.97;;;27.60;;
23082;SDS011;11709;52.420;10.538;2023-01-05T21:51:38;31.47;;;29.80;;
23082;SDS011;11709;52.420;10.538;2023-01-05T21:55:59;31.13;;;29.53;;
23082;SDS011;11709;52.420;10.538;2023-01-05T22:00:20;27.00;;;25.60;;
23082;SDS011;11709;52.420;10.538;2023-01-05T22:04:23;30.97;;;29.30;;
23082;SDS011;11709;52.420;10.538;2023-01-05T22:08:25;30.03;;;28.40;;
23082;SDS011;11709;52.420;10.538;2023-01-05T22:12:28;27.97;;;26.57;;
23082;SDS011;11709;52.420;10.538;2023-01-05T22:16:30;27.53;;;26.13;;
23082;SDS011;11709;52.420;10.538;2023-01-05T22:20:33;28.90;;;27.37;;
23082;SDS011;11709;52.420;10.538;2023-01-05T22:24:36;29.30;;;27.83;;
23082;SDS011;11709;52.420;10.538;2023-01-05T22:28:39;29.50;;;27.93;;
23082;SDS011;11709;52.420;10.538;2023-01-05T22:32:43;29.97;;;28.40;;
23082;SDS011;11709;52.420;10.538;2023-01-05T22:36:45;29.70;;;28.17;;
23082;SDS011;11709;52.420;10.538;2023-01-05T22:40:55;28.17;;;26.67;;
23082;SDS011;11709;52.420;10.538;2023-01-05T22:44:58;28.27;;;26.80;;
23082;SDS011;11709;52.420;10.538;2023-01-05T22:49:01;29.60;;;28.03;;
23082;SDS011;11709;52.420;10.538;2023-01-05T22:53:04;30.53;;;28.87;;
23082;SDS011;11709;52.420;10.538;2023-01-05T22:57:06;29.70;;;28.13;;
23082;SDS011;11709;52.420;10.538;2023-01-05T23:05:20;30.07;;;28.50;;
23082;SDS011;11709;52.420;10.538;2023-01-05T23:09:23;30.53;;;28.97;;
23082;SDS011;11709;52.420;10.538;2023-01-05T23:13:25;24.52;;;23.18;;
23082;SDS011;11709;52.420;10.538;2023-01-05T23:17:28;28.77;;;27.10;;
23082;SDS011;11709;52.420;10.538;2023-01-05T23:21:31;24.98;;;23.60;;
23082;SDS011;11709;52.420;10.538;2023-01-05T23:25:34;24.20;;;22.90;;
23082;SDS011;11709;52.420;10.538;2023-01-05T23:29:37;23.38;;;22.07;;
23082;SDS011;11709;52.420;10.538;2023-01-05T23:33:40;23.73;;;22.42;;
23082;SDS011;11709;52.420;10.538;2023-01-05T23:37:43;23.30;;;22.07;;
23082;SDS011;11709;52.420;10.538;2023-01-05T23:41:46;24.43;;;23.12;;
23082;SDS011;11709;52.420;10.538;2023-01-05T23:45:49;22.77;;;21.60;;
23082;SDS011;11709;52.420;10.538;2023-01-05T23:49:52;24.92;;;23.60;;
23082;SDS011;11709;52.420;10.538;2023-01-05T23:53:55;24.60;;;23.32;;
23082;SDS011;11709;52.420;10.538;2023-01-05T23:57:58;23.47;;;22.27;;
